createdAt,value
2022-11-15T00:03:22.150Z,1004.8
2022-11-15T00:08:18.660Z,1004.7
2022-11-15T00:13:37.928Z,1004.8
2022-11-15T00:18:34.264Z,1004.7
2022-11-15T00:23:50.722Z,1004.7
2022-11-15T00:28:57.122Z,1004.8
2022-11-15T00:34:07.491Z,1004.8
2022-11-15T00:39:09.877Z,1004.6
2022-11-15T00:45:10.418Z,1004.4
2022-11-15T00:50:17.782Z,1004.5
2022-11-15T00:55:24.161Z,1004.5
2022-11-15T01:00:30.621Z,1004.4
2022-11-15T01:08:35.589Z,1004.4
2022-11-15T01:13:18.937Z,1004.3
2022-11-15T01:18:49.399Z,1004.2
2022-11-15T01:23:51.765Z,1004.1
2022-11-15T01:28:42.120Z,1004.1
2022-11-15T01:33:44.483Z,1004.0
2022-11-15T01:39:10.926Z,1004.0
2022-11-15T01:44:01.267Z,1003.9
2022-11-15T01:48:53.776Z,1003.9
2022-11-15T01:54:10.187Z,1003.8
2022-11-15T01:59:20.601Z,1003.8
2022-11-15T02:04:26.965Z,1003.9
2022-11-15T02:10:29.453Z,1003.8
2022-11-15T02:14:55.783Z,1003.8
2022-11-15T02:19:46.101Z,1003.7
2022-11-15T02:24:48.465Z,1003.7
2022-11-15T02:30:38.994Z,1003.6
2022-11-15T02:45:27.334Z,1003.5
2022-11-15T02:53:05.256Z,1003.4
2022-11-15T02:58:12.688Z,1003.3
2022-11-15T03:02:45.001Z,1003.3
2022-11-15T03:08:02.657Z,1003.3
2022-11-15T03:13:47.051Z,1003.4
2022-11-15T03:18:54.472Z,1003.5
2022-11-15T03:24:02.367Z,1003.5
2022-11-15T03:29:08.793Z,1003.5
2022-11-15T03:34:15.179Z,1003.4
2022-11-15T03:39:21.533Z,1003.3
2022-11-15T03:44:27.996Z,1003.5
2022-11-15T03:49:58.434Z,1003.5
2022-11-15T03:54:30.721Z,1003.5
2022-11-15T03:59:47.147Z,1003.5
2022-11-15T04:05:17.570Z,1003.4
2022-11-15T04:10:03.925Z,1003.4
2022-11-15T04:14:56.380Z,1003.4
2022-11-15T04:20:12.866Z,1003.3
2022-11-15T04:25:23.159Z,1003.2
2022-11-15T04:30:53.715Z,1003.3
2022-11-15T04:35:36.022Z,1003.3
2022-11-15T04:40:58.467Z,1003.3
2022-11-15T04:47:03.006Z,1003.4
2022-11-15T04:52:52.484Z,1003.3
2022-11-15T04:56:56.730Z,1003.3
2022-11-15T05:02:03.123Z,1003.3
2022-11-15T05:06:59.556Z,1003.3
2022-11-15T05:12:14.874Z,1003.2
2022-11-15T05:17:22.270Z,1003.3
2022-11-15T05:23:22.763Z,1003.3
2022-11-15T05:28:54.172Z,1003.3
2022-11-15T05:33:36.564Z,1003.2
2022-11-15T05:39:03.238Z,1003.3
2022-11-15T05:43:49.541Z,1003.2
2022-11-15T05:48:55.929Z,1003.2
2022-11-15T05:54:02.517Z,1003.2
2022-11-15T05:59:32.972Z,1003.2
2022-11-15T06:05:27.434Z,1003.2
2022-11-15T06:09:11.752Z,1003.3
2022-11-15T06:14:32.155Z,1003.3
2022-11-15T06:19:34.600Z,1003.3
2022-11-15T06:24:31.014Z,1003.3
2022-11-15T06:29:47.532Z,1003.3
2022-11-15T06:34:54.034Z,1003.3
2022-11-15T06:39:50.578Z,1003.3
2022-11-15T06:45:41.061Z,1003.4
2022-11-15T06:51:08.507Z,1003.5
2022-11-15T06:55:55.701Z,1003.4
2022-11-15T07:01:01.315Z,1003.5
2022-11-15T07:06:01.396Z,1003.5
2022-11-15T07:11:18.145Z,1003.5
2022-11-15T07:17:04.606Z,1003.5
2022-11-15T07:21:16.878Z,1003.6
2022-11-15T07:26:33.344Z,1003.7
2022-11-15T07:31:39.698Z,1003.6
2022-11-15T07:36:46.098Z,1003.7
2022-11-15T07:41:52.638Z,1003.7
2022-11-15T07:47:32.950Z,1003.6
2022-11-15T07:52:44.342Z,1003.6
2022-11-15T07:57:36.728Z,1003.6
2022-11-15T08:02:53.427Z,1003.7
2022-11-15T08:08:23.729Z,1003.7
2022-11-15T08:13:26.129Z,1003.6
2022-11-15T08:18:16.549Z,1003.6
2022-11-15T08:23:18.912Z,1003.7
2022-11-15T08:28:25.328Z,1003.7
2022-11-15T08:33:35.982Z,1003.6
2022-11-15T08:38:28.180Z,1003.7
2022-11-15T08:43:44.568Z,1003.5
2022-11-15T08:48:50.988Z,1003.4
2022-11-15T08:53:57.350Z,1003.4
2022-11-15T08:59:07.732Z,1003.5
2022-11-15T09:04:10.189Z,1003.4
2022-11-15T09:09:16.596Z,1003.4
2022-11-15T09:14:22.973Z,1003.3
2022-11-15T09:19:29.395Z,1003.2
2022-11-15T09:24:25.724Z,1003.3
2022-11-15T09:29:42.134Z,1003.3
2022-11-15T09:34:50.700Z,1003.3
2022-11-15T09:39:47.033Z,1003.3
2022-11-15T09:44:53.415Z,1003.3
2022-11-15T09:50:09.856Z,1003.2
2022-11-15T09:55:16.198Z,1003.2
2022-11-15T10:05:29.027Z,1003.1
2022-11-15T10:10:35.323Z,1003.1
2022-11-15T10:15:41.844Z,1003.1
2022-11-15T10:20:48.279Z,1003.1
2022-11-15T10:25:54.639Z,1003.2
2022-11-15T10:30:50.998Z,1003.2
2022-11-15T10:36:07.444Z,1003.1
2022-11-15T10:41:13.808Z,1003.0
2022-11-15T10:46:44.915Z,1003.0
2022-11-15T10:51:26.591Z,1003.0
2022-11-15T10:56:33.082Z,1002.7
2022-11-15T11:01:39.554Z,1002.5
2022-11-15T11:06:45.945Z,1002.4
2022-11-15T11:11:52.270Z,1002.2
2022-11-15T11:17:24.296Z,1002.0
2022-11-15T11:22:06.653Z,1001.9
2022-11-15T11:27:37.062Z,1001.9
2022-11-15T11:32:19.391Z,1001.6
2022-11-15T11:37:25.893Z,1001.4
2022-11-15T11:42:52.289Z,1001.2
2022-11-15T11:47:38.656Z,1001.0
2022-11-15T11:52:35.137Z,1001.0
2022-11-15T11:57:41.601Z,1001.0
2022-11-15T12:02:48.196Z,1000.8
2022-11-15T12:08:27.453Z,1000.9
2022-11-15T12:13:30.805Z,1000.7
2022-11-15T12:18:07.126Z,1000.7
2022-11-15T12:23:23.650Z,1000.5
2022-11-15T12:28:20.124Z,1000.5
2022-11-15T12:33:36.535Z,1000.6
2022-11-15T12:38:42.929Z,1000.4
2022-11-15T12:43:49.319Z,1000.3
2022-11-15T12:48:55.761Z,1000.2
2022-11-15T12:54:02.197Z,1000.9
2022-11-15T12:59:08.775Z,1000.7
2022-11-15T13:04:15.126Z,1000.8
2022-11-15T13:09:11.482Z,1000.9
2022-11-15T13:14:27.914Z,1001.0
2022-11-15T13:19:34.332Z,1001.5
2022-11-15T13:25:16.802Z,1001.3
2022-11-15T13:30:25.828Z,1002.2
2022-11-15T13:35:32.875Z,1002.1
2022-11-15T13:40:44.785Z,1002.4
2022-11-15T13:45:51.842Z,1001.9
2022-11-15T14:07:14.068Z,1001.0
2022-11-15T14:12:15.226Z,1000.7
2022-11-15T14:18:15.287Z,1000.6
2022-11-15T14:22:13.522Z,1000.2
2022-11-15T14:27:54.006Z,1000.0
2022-11-15T14:33:01.357Z,999.9
2022-11-15T14:38:07.732Z,1000.0
2022-11-15T14:43:04.107Z,999.9
2022-11-15T14:48:20.510Z,999.8
2022-11-15T14:53:16.874Z,999.8
2022-11-15T14:58:53.336Z,999.7
2022-11-15T15:03:29.643Z,999.6
2022-11-15T15:09:10.115Z,999.5
2022-11-15T15:13:52.452Z,999.5
2022-11-15T15:18:48.882Z,999.5
2022-11-15T15:24:05.251Z,999.4
2022-11-15T15:29:11.620Z,999.3
2022-11-15T15:34:38.070Z,999.4
2022-11-15T15:39:24.393Z,999.3
2022-11-15T15:44:30.773Z,999.2
2022-11-15T15:49:37.243Z,999.2
2022-11-15T15:54:43.757Z,999.2
2022-11-15T15:59:40.109Z,999.0
2022-11-15T16:04:56.526Z,999.0
2022-11-15T16:10:02.925Z,999.0
2022-11-15T16:15:09.339Z,999.0
2022-11-15T16:20:15.721Z,998.9
2022-11-15T16:25:26.187Z,998.9
2022-11-15T16:30:28.571Z,998.8
2022-11-15T16:35:38.536Z,998.8
2022-11-15T16:41:22.873Z,998.8
2022-11-15T16:51:40.767Z,998.7
2022-11-15T16:56:48.193Z,998.6
2022-11-15T17:02:17.574Z,998.6
2022-11-15T17:07:05.036Z,998.6
2022-11-15T17:12:11.929Z,998.6
2022-11-15T17:17:46.348Z,998.5
2022-11-15T17:24:46.516Z,998.4
2022-11-15T17:32:44.632Z,998.4
2022-11-15T17:37:47.110Z,998.4
2022-11-15T17:42:57.489Z,998.3
2022-11-15T17:47:59.905Z,998.4
2022-11-15T17:53:06.257Z,998.3
2022-11-15T17:58:12.640Z,998.2
2022-11-15T18:06:27.516Z,998.2
2022-11-15T18:08:25.505Z,998.2
2022-11-15T18:13:52.525Z,998.1
2022-11-15T18:18:38.254Z,998.1
2022-11-15T18:23:44.700Z,998.1
2022-11-15T18:28:51.163Z,998.1
2022-11-15T18:33:57.539Z,998.0
2022-11-15T18:39:04.051Z,997.9
2022-11-15T18:44:34.458Z,998.0
2022-11-15T18:49:16.816Z,998.0
2022-11-15T18:54:28.131Z,997.9
2022-11-15T18:59:33.697Z,997.7
2022-11-15T19:05:54.239Z,997.8
2022-11-15T19:10:17.582Z,997.7
2022-11-15T19:15:47.996Z,997.7
2022-11-15T19:20:30.426Z,997.6
2022-11-15T19:26:00.894Z,997.6
2022-11-15T19:30:33.195Z,997.6
2022-11-15T19:35:49.596Z,997.6
2022-11-15T19:40:55.996Z,997.6
2022-11-15T19:45:52.455Z,997.5
2022-11-15T19:51:08.851Z,997.5
2022-11-15T19:56:05.216Z,997.5
2022-11-15T20:01:21.769Z,997.5
2022-11-15T20:06:17.996Z,997.5
2022-11-15T20:11:48.416Z,997.4
2022-11-15T20:16:40.881Z,997.3
2022-11-15T20:22:07.410Z,997.3
2022-11-15T20:26:53.754Z,997.3
2022-11-15T20:32:00.158Z,997.2
2022-11-15T20:36:56.498Z,997.2
2022-11-15T20:42:12.977Z,997.1
2022-11-15T20:47:39.537Z,997.0
2022-11-15T20:52:45.055Z,997.0
2022-11-15T20:57:32.380Z,997.0
2022-11-15T21:02:42.805Z,996.9
2022-11-15T21:07:45.158Z,997.0
2022-11-15T21:12:55.611Z,997.0
2022-11-15T21:17:58.008Z,997.0
2022-11-15T21:23:04.331Z,996.9
2022-11-15T21:28:10.790Z,996.9
2022-11-15T21:33:37.318Z,996.8
2022-11-15T21:38:23.641Z,996.8
2022-11-15T21:43:54.084Z,996.8
2022-11-15T21:48:36.665Z,996.8
2022-11-15T21:53:44.432Z,996.7
2022-11-15T21:58:50.823Z,996.7
2022-11-15T22:03:57.210Z,996.6
2022-11-15T22:09:03.722Z,996.6
2022-11-15T22:14:10.083Z,996.5
2022-11-15T22:20:45.152Z,996.4
2022-11-15T22:24:44.487Z,996.4
2022-11-15T22:29:30.835Z,996.3
2022-11-15T23:17:36.218Z,996.0
2022-11-15T23:22:47.173Z,996.1
2022-11-15T23:55:19.433Z,995.8
